createdAt,value
2022-12-23T00:01:32.214Z,73.40
2022-12-23T00:04:00.423Z,60.80
2022-12-23T00:06:28.672Z,59.90
2022-12-23T00:08:58.836Z,51.50
2022-12-23T00:11:28.829Z,58.40
2022-12-23T00:14:20.991Z,62.10
2022-12-23T00:16:51.128Z,61.10
2022-12-23T00:19:19.710Z,53.90
2022-12-23T00:21:48.605Z,56.50
2022-12-23T00:24:17.453Z,61.80
2022-12-23T00:26:45.657Z,58.70
2022-12-23T00:29:13.695Z,59.50
2022-12-23T00:31:41.705Z,63.50
2022-12-23T00:34:12.444Z,55.10
2022-12-23T00:36:40.977Z,56.40
2022-12-23T00:39:31.589Z,59.80
2022-12-23T00:42:18.237Z,60.60
2022-12-23T00:44:46.310Z,64.40
2022-12-23T00:47:34.338Z,62.40
2022-12-23T00:50:02.351Z,53.60
2022-12-23T00:52:30.439Z,57.30
2022-12-23T00:54:58.483Z,65.20
2022-12-23T00:57:27.223Z,59.50
2022-12-23T00:59:55.255Z,59.70
2022-12-23T01:02:45.457Z,58.60
2022-12-23T01:05:36.711Z,52.00
2022-12-23T01:08:10.831Z,58.20
2022-12-23T01:10:40.988Z,54.90
2022-12-23T01:13:09.120Z,54.70
2022-12-23T01:15:37.192Z,54.80
2022-12-23T01:18:05.264Z,58.40
2022-12-23T01:20:33.240Z,54.10
2022-12-23T01:23:01.234Z,62.90
2022-12-23T01:25:30.503Z,49.60
2022-12-23T01:30:26.445Z,50.20
2022-12-23T01:32:54.536Z,45.20
2022-12-23T01:35:22.427Z,45.80
2022-12-23T01:37:50.397Z,53.60
2022-12-23T01:40:18.581Z,57.30
2022-12-23T01:42:47.485Z,50.10
2022-12-23T01:45:24.954Z,51.40
2022-12-23T01:48:10.470Z,54.00
2022-12-23T01:50:41.575Z,59.40
2022-12-23T01:53:28.182Z,54.40
2022-12-23T01:56:10.614Z,55.80
2022-12-23T01:58:43.057Z,55.30
2022-12-23T02:01:30.606Z,49.20
2022-12-23T02:04:02.732Z,61.30
2022-12-23T02:06:55.457Z,59.50
2022-12-23T02:09:23.602Z,65.60
2022-12-23T02:12:20.623Z,52.90
2022-12-23T02:15:26.111Z,54.70
2022-12-23T02:18:27.592Z,47.40
2022-12-23T02:21:19.773Z,53.80
2022-12-23T02:24:03.202Z,59.20
2022-12-23T02:26:54.341Z,63.90
2022-12-23T02:30:00.478Z,53.10
2022-12-23T02:32:44.152Z,65.70
2022-12-23T02:35:29.277Z,55.10
2022-12-23T02:38:20.926Z,47.50
2022-12-23T02:41:06.805Z,55.60
2022-12-23T02:43:37.443Z,56.30
2022-12-23T02:46:13.938Z,65.10
2022-12-23T02:48:54.453Z,58.50
2022-12-23T02:51:29.490Z,59.90
2022-12-23T02:54:03.117Z,58.20
2022-12-23T02:56:33.487Z,57.90
2022-12-23T02:59:27.080Z,55.60
2022-12-23T03:01:55.689Z,58.00
2022-12-23T03:04:23.738Z,63.20
2022-12-23T03:06:54.170Z,64.40
2022-12-23T03:09:36.213Z,60.30
2022-12-23T03:12:28.482Z,67.70
2022-12-23T03:15:02.822Z,61.20
2022-12-23T03:17:41.517Z,59.20
2022-12-23T03:20:20.781Z,58.40
2022-12-23T03:25:27.566Z,52.30
2022-12-23T03:28:18.782Z,57.90
2022-12-23T03:30:53.243Z,57.80
2022-12-23T03:33:29.189Z,66.60
2022-12-23T03:36:03.496Z,63.50
2022-12-23T03:38:35.753Z,59.20
2022-12-23T03:41:09.971Z,57.50
2022-12-23T03:43:51.071Z,57.10
2022-12-23T03:46:28.013Z,61.90
2022-12-23T03:49:03.879Z,59.90
2022-12-23T03:51:43.949Z,66.40
2022-12-23T03:54:17.125Z,63.70
2022-12-23T03:56:57.532Z,64.20
2022-12-23T03:59:29.728Z,58.50
2022-12-23T04:02:04.536Z,61.30
2022-12-23T04:05:10.759Z,48.80
2022-12-23T04:07:43.676Z,60.20
2022-12-23T04:10:12.991Z,56.50
2022-12-23T04:15:13.117Z,57.00
2022-12-23T04:17:41.779Z,65.60
2022-12-23T04:20:10.866Z,54.50
2022-12-23T04:22:39.654Z,63.80
2022-12-23T04:25:08.338Z,48.90
2022-12-23T04:27:36.818Z,59.60
2022-12-23T04:30:06.992Z,56.40
2022-12-23T04:32:35.110Z,68.40
2022-12-23T04:35:03.422Z,60.70
2022-12-23T04:37:31.627Z,67.40
2022-12-23T04:39:59.629Z,61.90
2022-12-23T04:42:27.698Z,55.60
2022-12-23T04:44:55.788Z,52.80
2022-12-23T04:47:23.845Z,57.80
2022-12-23T04:49:51.822Z,50.10
2022-12-23T04:52:19.894Z,44.30
2022-12-23T04:54:47.901Z,53.50
2022-12-23T04:57:16.319Z,50.90
2022-12-23T04:59:44.313Z,57.70
2022-12-23T05:02:12.868Z,58.10
2022-12-23T05:04:41.579Z,52.40
2022-12-23T05:07:09.802Z,52.30
2022-12-23T05:09:37.835Z,49.10
2022-12-23T05:12:05.889Z,57.80
2022-12-23T05:14:33.831Z,49.30
2022-12-23T05:17:07.073Z,59.20
2022-12-23T05:19:35.696Z,54.40
2022-12-23T05:22:03.838Z,56.90
2022-12-23T05:24:32.107Z,63.70
2022-12-23T05:27:00.643Z,53.60
2022-12-23T05:29:28.767Z,59.70
2022-12-23T05:31:57.389Z,57.20
2022-12-23T05:34:25.520Z,52.80
2022-12-23T05:36:53.488Z,57.70
2022-12-23T05:39:21.764Z,51.40
2022-12-23T05:41:49.811Z,51.60
2022-12-23T05:44:17.821Z,47.40
2022-12-23T05:46:45.737Z,48.90
2022-12-23T05:49:13.671Z,52.70
2022-12-23T05:51:42.009Z,49.60
2022-12-23T05:54:09.971Z,50.20
2022-12-23T05:56:38.150Z,48.20
2022-12-23T05:59:06.384Z,60.10
2022-12-23T06:01:34.555Z,43.40
2022-12-23T06:04:03.201Z,48.70
2022-12-23T06:06:31.349Z,49.50
2022-12-23T06:08:59.968Z,48.10
2022-12-23T06:11:28.796Z,52.40
2022-12-23T06:13:57.075Z,55.20
2022-12-23T06:16:25.132Z,57.00
2022-12-23T06:18:56.587Z,53.10
2022-12-23T06:21:28.045Z,60.00
2022-12-23T06:23:55.904Z,59.80
2022-12-23T06:26:24.034Z,56.20
2022-12-23T06:28:52.555Z,62.70
2022-12-23T06:31:20.559Z,54.70
2022-12-23T06:33:48.720Z,60.60
2022-12-23T06:36:16.892Z,57.00
2022-12-23T06:38:44.843Z,62.00
2022-12-23T06:41:13.658Z,65.90
2022-12-23T06:43:41.704Z,62.90
2022-12-23T06:46:09.843Z,62.30
2022-12-23T06:48:37.968Z,60.10
2022-12-23T06:51:06.136Z,61.50
2022-12-23T06:53:34.199Z,71.70
2022-12-23T06:56:03.695Z,66.60
2022-12-23T06:58:31.770Z,56.30
2022-12-23T07:00:59.957Z,59.10
2022-12-23T07:03:28.491Z,58.00
2022-12-23T07:05:56.539Z,66.90
2022-12-23T07:08:24.538Z,57.80
2022-12-23T07:10:58.737Z,57.70
2022-12-23T07:13:27.531Z,58.10
2022-12-23T07:15:55.629Z,58.90
2022-12-23T07:18:23.771Z,60.60
2022-12-23T07:20:52.661Z,54.40
2022-12-23T07:23:20.674Z,48.60
2022-12-23T07:25:48.713Z,44.90
2022-12-23T07:28:16.735Z,46.20
2022-12-23T07:30:44.627Z,59.10
2022-12-23T07:33:12.953Z,53.60
2022-12-23T07:35:42.566Z,53.50
2022-12-23T07:38:10.796Z,46.30
2022-12-23T07:40:38.995Z,58.00
2022-12-23T07:43:06.906Z,70.00
2022-12-23T07:45:35.032Z,63.20
2022-12-23T07:48:03.218Z,64.60
2022-12-23T07:50:31.170Z,63.90
2022-12-23T07:52:59.350Z,71.50
2022-12-23T07:55:27.518Z,70.10
2022-12-23T07:57:55.482Z,66.80
2022-12-23T08:00:23.680Z,64.10
2022-12-23T08:02:51.857Z,70.00
2022-12-23T08:05:20.103Z,67.10
2022-12-23T08:07:50.183Z,66.00
2022-12-23T08:10:18.203Z,62.70
2022-12-23T08:12:46.781Z,76.30
2022-12-23T08:15:14.787Z,73.30
2022-12-23T08:17:43.397Z,70.30
2022-12-23T08:20:12.063Z,64.80
2022-12-23T08:22:40.096Z,61.60
2022-12-23T08:25:08.534Z,64.40
2022-12-23T08:27:36.651Z,64.50
2022-12-23T08:30:05.208Z,62.10
2022-12-23T08:32:33.242Z,63.80
2022-12-23T08:35:01.483Z,54.20
2022-12-23T08:37:29.759Z,69.70
2022-12-23T08:39:57.829Z,68.00
2022-12-23T08:42:25.907Z,72.00
2022-12-23T08:44:53.878Z,69.30
2022-12-23T08:47:21.966Z,64.80
2022-12-23T08:49:49.949Z,66.80
2022-12-23T08:52:17.947Z,72.90
2022-12-23T08:54:45.964Z,72.10
2022-12-23T08:57:14.334Z,68.60
2022-12-23T08:59:42.348Z,63.70
2022-12-23T09:02:12.186Z,64.80
2022-12-23T09:04:40.393Z,64.60
2022-12-23T09:07:08.384Z,64.60
2022-12-23T09:09:38.076Z,64.60
2022-12-23T09:12:06.467Z,58.80
2022-12-23T09:15:00.452Z,67.30
2022-12-23T09:17:28.724Z,58.80
2022-12-23T09:19:56.898Z,61.80
2022-12-23T09:22:24.991Z,61.70
2022-12-23T09:24:53.281Z,62.10
2022-12-23T09:27:21.446Z,59.40
2022-12-23T09:29:49.357Z,61.20
2022-12-23T09:32:17.666Z,64.50
2022-12-23T09:34:45.729Z,63.00
2022-12-23T09:37:16.907Z,60.80
2022-12-23T09:39:44.965Z,68.70
2022-12-23T09:42:25.210Z,66.30
2022-12-23T09:45:40.156Z,69.00
2022-12-23T09:48:17.580Z,65.60
2022-12-23T09:50:46.749Z,70.00
2022-12-23T09:53:22.617Z,60.40
2022-12-23T09:56:02.664Z,61.80
2022-12-23T09:58:46.716Z,61.80
2022-12-23T10:01:59.609Z,64.60
2022-12-23T10:04:38.021Z,67.60
2022-12-23T10:07:11.794Z,68.10
2022-12-23T10:09:44.147Z,64.20
2022-12-23T10:12:40.428Z,63.90
2022-12-23T10:15:47.805Z,56.90
2022-12-23T10:18:42.546Z,64.50
2022-12-23T10:21:24.855Z,68.00
2022-12-23T10:23:55.991Z,69.70
2022-12-23T10:26:57.342Z,68.10
2022-12-23T10:29:30.139Z,69.80
2022-12-23T10:32:32.584Z,63.10
2022-12-23T10:35:41.127Z,63.30
2022-12-23T10:38:26.809Z,73.80
2022-12-23T10:41:09.536Z,76.20
2022-12-23T10:44:05.047Z,72.10
2022-12-23T10:47:22.578Z,68.80
2022-12-23T10:50:21.265Z,76.40
2022-12-23T10:52:53.840Z,72.50
2022-12-23T10:55:34.142Z,69.30
2022-12-23T10:58:27.362Z,71.70
2022-12-23T11:00:59.808Z,73.70
2022-12-23T11:03:32.508Z,68.80
2022-12-23T11:15:58.337Z,74.70
2022-12-23T11:18:26.578Z,77.10
2022-12-23T11:30:05.676Z,66.20
2022-12-23T11:32:38.563Z,65.20
2022-12-23T11:35:30.677Z,68.80
2022-12-23T11:38:01.224Z,57.80
2022-12-23T11:40:36.740Z,64.40
2022-12-23T11:43:12.447Z,69.90
2022-12-23T11:45:41.289Z,60.90
2022-12-23T11:48:28.546Z,59.40
2022-12-23T11:51:01.880Z,61.30
2022-12-23T11:53:30.446Z,59.90
2022-12-23T11:56:07.335Z,65.90
2022-12-23T11:59:02.847Z,60.90
2022-12-23T12:01:31.801Z,60.80
2022-12-23T12:04:07.641Z,60.40
2022-12-23T12:06:43.677Z,64.00
2022-12-23T12:09:13.855Z,56.60
2022-12-23T12:11:53.019Z,59.40
2022-12-23T12:17:05.565Z,57.10
2022-12-23T12:19:39.933Z,54.70
2022-12-23T12:22:15.074Z,57.60
2022-12-23T12:24:50.760Z,60.50
2022-12-23T12:27:28.339Z,45.40
2022-12-23T12:30:04.547Z,52.80
2022-12-23T12:32:56.258Z,60.80
2022-12-23T12:35:45.799Z,62.80
2022-12-23T12:38:30.542Z,56.90
2022-12-23T12:41:06.808Z,59.70
2022-12-23T12:43:47.289Z,59.30
2022-12-23T12:46:41.240Z,62.30
2022-12-23T12:49:20.603Z,61.80
2022-12-23T12:51:58.378Z,60.90
2022-12-23T12:54:39.944Z,54.10
2022-12-23T12:57:15.600Z,58.70
2022-12-23T12:59:45.495Z,57.70
2022-12-23T13:02:42.112Z,55.00
2022-12-23T13:05:24.080Z,58.60
2022-12-23T13:08:16.749Z,57.30
2022-12-23T13:10:49.605Z,55.60
2022-12-23T13:13:55.180Z,65.90
2022-12-23T13:16:29.270Z,55.10
2022-12-23T13:19:06.628Z,54.60
2022-12-23T13:21:48.116Z,59.70
2022-12-23T13:24:48.628Z,58.50
2022-12-23T13:27:44.620Z,51.10
2022-12-23T13:30:21.623Z,53.70
2022-12-23T13:33:16.711Z,47.50
2022-12-23T13:36:06.019Z,56.10
2022-12-23T13:39:06.941Z,48.40
2022-12-23T13:41:53.623Z,51.00
2022-12-23T13:44:22.755Z,56.50
2022-12-23T13:46:59.828Z,57.10
2022-12-23T13:49:58.533Z,55.20
2022-12-23T13:52:29.597Z,64.20
2022-12-23T13:55:16.109Z,61.90
2022-12-23T13:58:02.987Z,76.80
2022-12-23T14:00:33.316Z,131.80
2022-12-23T14:03:01.536Z,133.10
2022-12-23T14:05:39.016Z,147.60
2022-12-23T14:08:19.332Z,96.80
2022-12-23T14:10:59.184Z,98.30
2022-12-23T14:13:36.698Z,135.00
2022-12-23T14:16:22.686Z,114.80
2022-12-23T14:18:53.704Z,81.80
2022-12-23T14:21:21.666Z,83.00
2022-12-23T14:24:27.032Z,62.10
2022-12-23T14:27:27.309Z,64.90
2022-12-23T14:30:23.798Z,71.50
2022-12-23T14:33:00.572Z,60.80
2022-12-23T14:35:35.455Z,55.60
2022-12-23T14:38:08.156Z,52.80
2022-12-23T14:40:38.939Z,50.10
2022-12-23T14:43:22.344Z,45.00
2022-12-23T14:45:56.111Z,40.10
2022-12-23T14:48:34.578Z,46.10
2022-12-23T14:51:09.062Z,44.20
2022-12-23T14:53:57.995Z,64.00
2022-12-23T14:56:26.510Z,58.40
2022-12-23T14:59:09.932Z,59.80
2022-12-23T15:01:42.599Z,52.90
2022-12-23T15:04:13.300Z,53.00
2022-12-23T15:07:06.740Z,59.30
2022-12-23T15:09:55.660Z,56.60
2022-12-23T15:12:42.213Z,51.20
2022-12-23T15:15:25.319Z,50.20
2022-12-23T15:18:06.003Z,47.80
2022-12-23T15:20:35.381Z,48.10
2022-12-23T15:23:10.174Z,55.20
2022-12-23T15:25:46.284Z,47.80
2022-12-23T15:28:21.893Z,62.40
2022-12-23T15:30:54.344Z,60.60
2022-12-23T15:36:35.766Z,60.90
2022-12-23T15:39:10.634Z,53.30
2022-12-23T15:41:46.247Z,64.60
2022-12-23T15:44:21.378Z,82.80
2022-12-23T15:46:50.816Z,72.60
2022-12-23T15:49:22.430Z,78.50
2022-12-23T15:52:08.530Z,67.00
2022-12-23T15:54:46.662Z,58.60
2022-12-23T15:57:20.858Z,54.00
2022-12-23T15:59:49.241Z,63.10
2022-12-23T16:02:59.727Z,65.40
2022-12-23T16:05:36.115Z,70.50
2022-12-23T16:28:40.693Z,113.50
2022-12-23T16:31:11.034Z,48.50
2022-12-23T16:33:52.115Z,52.70
2022-12-23T16:36:27.453Z,51.30
2022-12-23T16:39:24.050Z,66.50
2022-12-23T16:41:52.257Z,62.90
2022-12-23T16:44:21.670Z,78.00
2022-12-23T16:46:51.472Z,74.80
2022-12-23T16:49:24.438Z,77.50
2022-12-23T16:51:58.614Z,64.40
2022-12-23T16:54:26.746Z,67.40
2022-12-23T16:56:54.781Z,75.90
2022-12-23T16:59:25.054Z,92.20
2022-12-23T17:01:56.558Z,90.50
2022-12-23T17:04:28.562Z,75.50
2022-12-23T17:06:56.832Z,72.40
2022-12-23T17:09:25.754Z,72.20
2022-12-23T17:11:54.430Z,77.50
2022-12-23T17:14:25.149Z,69.30
2022-12-23T17:16:53.855Z,71.80
2022-12-23T17:19:28.704Z,77.00
2022-12-23T17:22:04.509Z,70.80
2022-12-23T17:24:32.742Z,64.20
2022-12-23T17:27:02.066Z,62.90
2022-12-23T17:29:30.713Z,61.60
2022-12-23T17:31:59.103Z,68.00
2022-12-23T17:34:27.433Z,66.40
2022-12-23T17:36:55.801Z,58.00
2022-12-23T17:39:24.194Z,59.70
2022-12-23T17:41:52.572Z,57.00
2022-12-23T17:44:21.277Z,54.30
2022-12-23T17:46:49.900Z,63.20
2022-12-23T17:49:18.222Z,65.50
2022-12-23T17:51:47.581Z,59.70
2022-12-23T17:54:24.897Z,58.60
2022-12-23T17:56:53.272Z,69.20
2022-12-23T17:59:22.691Z,62.20
2022-12-23T18:01:51.831Z,50.10
2022-12-23T18:04:22.013Z,48.60
2022-12-23T18:06:50.154Z,50.60
2022-12-23T18:09:19.594Z,51.00
2022-12-23T18:11:48.872Z,51.10
2022-12-23T18:14:24.028Z,47.00
2022-12-23T18:16:52.273Z,48.40
2022-12-23T18:19:21.708Z,53.90
2022-12-23T18:21:51.552Z,40.90
2022-12-23T18:24:20.392Z,43.10
2022-12-23T18:26:50.131Z,38.60
2022-12-23T18:29:19.428Z,39.10
2022-12-23T18:31:52.075Z,52.70
2022-12-23T18:34:22.231Z,38.50
2022-12-23T18:36:52.239Z,36.70
2022-12-23T18:39:21.386Z,52.50
2022-12-23T18:41:49.828Z,44.40
2022-12-23T18:44:20.773Z,41.70
2022-12-23T18:46:50.532Z,50.30
2022-12-23T18:49:19.412Z,43.90
2022-12-23T19:06:23.483Z,91.40
2022-12-23T19:08:51.351Z,77.20
2022-12-23T19:11:20.833Z,58.50
2022-12-23T19:13:48.696Z,57.20
2022-12-23T19:16:19.863Z,66.60
2022-12-23T19:18:49.580Z,69.70
2022-12-23T19:21:18.618Z,68.60
2022-12-23T19:23:46.642Z,57.60
2022-12-23T19:26:15.436Z,55.20
2022-12-23T19:28:43.663Z,52.50
2022-12-23T19:31:14.428Z,52.30
2022-12-23T19:33:45.189Z,54.00
2022-12-23T19:36:16.510Z,59.90
2022-12-23T19:38:44.625Z,61.20
2022-12-23T19:41:12.585Z,62.20
2022-12-23T19:43:44.800Z,59.10
2022-12-23T19:46:14.922Z,58.80
2022-12-23T19:48:43.647Z,55.40
2022-12-23T19:51:13.902Z,52.60
2022-12-23T19:53:42.488Z,61.50
2022-12-23T19:56:15.849Z,67.10
2022-12-23T19:58:44.329Z,57.10
2022-12-23T20:01:13.711Z,49.50
2022-12-23T20:06:22.470Z,65.80
2022-12-23T20:08:54.937Z,76.00
2022-12-23T20:11:26.319Z,74.80
2022-12-23T20:13:55.497Z,59.30
2022-12-23T20:16:23.705Z,58.30
2022-12-23T20:18:51.922Z,54.30
2022-12-23T20:21:20.731Z,60.10
2022-12-23T20:23:49.327Z,59.10
2022-12-23T20:26:18.707Z,56.50
2022-12-23T20:28:46.997Z,59.80
2022-12-23T20:31:21.043Z,58.50
2022-12-23T20:33:50.721Z,48.60
2022-12-23T20:36:23.188Z,51.50
2022-12-23T20:38:52.527Z,48.30
2022-12-23T20:44:23.335Z,57.20
2022-12-23T20:46:37.715Z,60.20
2022-12-23T20:49:05.771Z,56.70
2022-12-23T20:51:35.183Z,58.10
2022-12-23T20:54:03.266Z,71.40
2022-12-23T20:56:31.877Z,59.20
2022-12-23T20:59:01.619Z,55.70
2022-12-23T21:01:38.701Z,47.60
2022-12-23T21:04:14.151Z,51.10
2022-12-23T21:06:42.661Z,53.80
2022-12-23T21:09:12.576Z,59.00
2022-12-23T21:11:43.306Z,53.00
2022-12-23T21:14:12.722Z,59.20
2022-12-23T21:16:41.812Z,51.90
2022-12-23T21:21:45.204Z,55.60
2022-12-23T21:24:14.095Z,56.20
2022-12-23T21:26:42.555Z,71.60
2022-12-23T21:29:11.640Z,72.80
2022-12-23T21:31:41.133Z,73.20
2022-12-23T21:34:10.888Z,56.70
2022-12-23T21:36:39.452Z,70.80
2022-12-23T21:39:08.875Z,66.20
2022-12-23T21:44:06.233Z,59.70
2022-12-23T21:46:34.484Z,63.20
2022-12-23T21:49:02.823Z,57.40
2022-12-23T21:51:39.553Z,56.20
2022-12-23T21:54:10.633Z,55.80
2022-12-23T21:56:40.690Z,51.80
2022-12-23T21:59:12.760Z,47.90
2022-12-23T22:01:42.196Z,54.60
2022-12-23T22:04:10.522Z,56.40
2022-12-23T22:06:43.443Z,52.80
2022-12-23T22:09:15.987Z,52.10
2022-12-23T22:11:44.550Z,57.00
2022-12-23T22:14:16.042Z,50.60
2022-12-23T22:16:44.154Z,55.90
2022-12-23T22:19:12.547Z,60.20
2022-12-23T22:21:42.457Z,68.90
2022-12-23T22:24:11.184Z,61.60
2022-12-23T22:26:39.529Z,53.10
2022-12-23T22:29:08.119Z,55.50
2022-12-23T22:31:44.786Z,64.50
2022-12-23T22:34:16.699Z,69.60
2022-12-23T22:36:45.708Z,66.00
2022-12-23T22:39:19.988Z,65.80
2022-12-23T22:41:52.951Z,66.30
2022-12-23T22:44:21.785Z,64.30
2022-12-23T22:46:50.113Z,63.20
2022-12-23T22:49:18.910Z,61.30
2022-12-23T22:51:46.870Z,56.60
2022-12-23T22:54:14.919Z,58.60
2022-12-23T22:56:44.247Z,58.70
2022-12-23T22:59:19.322Z,70.90
2022-12-23T23:01:47.992Z,71.20
2022-12-23T23:04:16.038Z,68.50
2022-12-23T23:06:44.115Z,67.80
2022-12-23T23:09:14.967Z,72.50
2022-12-23T23:11:44.477Z,77.70
2022-12-23T23:14:13.342Z,80.50
2022-12-23T23:16:41.957Z,77.70
2022-12-23T23:19:10.731Z,75.90
2022-12-23T23:21:38.686Z,65.40
2022-12-23T23:24:07.251Z,74.80
2022-12-23T23:26:35.348Z,73.20
2022-12-23T23:29:03.320Z,70.60
2022-12-23T23:31:41.705Z,75.00
2022-12-23T23:34:10.819Z,76.80
2022-12-23T23:36:39.142Z,79.30
2022-12-23T23:39:07.475Z,88.50
2022-12-23T23:41:35.863Z,79.60
2022-12-23T23:44:04.182Z,82.70
2022-12-23T23:46:33.332Z,90.20
2022-12-23T23:49:01.503Z,90.20
2022-12-23T23:51:29.886Z,79.80
2022-12-23T23:53:57.822Z,71.40
2022-12-23T23:56:27.935Z,73.00
2022-12-23T23:58:57.987Z,74.40
